sensor_id;sensor_type;location;lat;lon;timestamp;pressure;altitude;pressure_sealevel;temperature
15544;BMP180;7873;52.230;12.856;2022-12-20T00:01:59;101038.84;;;25.71
15544;BMP180;7873;52.230;12.856;2022-12-20T00:04:25;101047.31;;;25.68
15544;BMP180;7873;52.230;12.856;2022-12-20T00:06:52;101044.34;;;25.63
15544;BMP180;7873;52.230;12.856;2022-12-20T00:09:19;101039.13;;;25.62
15544;BMP180;7873;52.230;12.856;2022-12-20T00:11:45;101021.47;;;25.59
15544;BMP180;7873;52.230;12.856;2022-12-20T00:14:12;101021.63;;;25.58
15544;BMP180;7873;52.230;12.856;2022-12-20T00:16:39;101019.16;;;25.57
15544;BMP180;7873;52.230;12.856;2022-12-20T00:19:08;101016.16;;;25.52
15544;BMP180;7873;52.230;12.856;2022-12-20T00:21:36;101027.31;;;25.49
15544;BMP180;7873;52.230;12.856;2022-12-20T00:24:03;101032.06;;;25.47
15544;BMP180;7873;52.230;12.856;2022-12-20T00:26:32;101023.31;;;25.45
15544;BMP180;7873;52.230;12.856;2022-12-20T00:29:00;101036.34;;;25.41
15544;BMP180;7873;52.230;12.856;2022-12-20T00:31:28;101035.88;;;25.38
15544;BMP180;7873;52.230;12.856;2022-12-20T00:33:56;101029.63;;;25.37
15544;BMP180;7873;52.230;12.856;2022-12-20T00:36:27;101017.53;;;25.33
15544;BMP180;7873;52.230;12.856;2022-12-20T00:38:55;101021.09;;;25.34
15544;BMP180;7873;52.230;12.856;2022-12-20T00:41:24;101023.97;;;25.32
15544;BMP180;7873;52.230;12.856;2022-12-20T00:43:51;101018.28;;;25.27
15544;BMP180;7873;52.230;12.856;2022-12-20T00:46:19;101011.22;;;25.26
15544;BMP180;7873;52.230;12.856;2022-12-20T00:48:46;101007.03;;;25.24
15544;BMP180;7873;52.230;12.856;2022-12-20T00:51:14;101013.44;;;25.23
15544;BMP180;7873;52.230;12.856;2022-12-20T00:53:43;101024.59;;;25.20
15544;BMP180;7873;52.230;12.856;2022-12-20T00:56:10;101018.56;;;25.18
15544;BMP180;7873;52.230;12.856;2022-12-20T00:58:38;101017.03;;;25.15
15544;BMP180;7873;52.230;12.856;2022-12-20T01:01:06;101030.69;;;25.14
15544;BMP180;7873;52.230;12.856;2022-12-20T01:03:39;101031.91;;;25.11
15544;BMP180;7873;52.230;12.856;2022-12-20T01:06:06;101025.84;;;25.09
15544;BMP180;7873;52.230;12.856;2022-12-20T01:08:33;101028.38;;;25.11
15544;BMP180;7873;52.230;12.856;2022-12-20T01:11:03;101027.53;;;25.10
15544;BMP180;7873;52.230;12.856;2022-12-20T01:13:31;101027.72;;;25.09
15544;BMP180;7873;52.230;12.856;2022-12-20T01:16:03;101028.25;;;25.04
15544;BMP180;7873;52.230;12.856;2022-12-20T01:18:30;101043.59;;;25.04
15544;BMP180;7873;52.230;12.856;2022-12-20T01:21:00;101036.72;;;25.01
15544;BMP180;7873;52.230;12.856;2022-12-20T01:23:28;101029.66;;;25.00
15544;BMP180;7873;52.230;12.856;2022-12-20T01:25:57;101024.44;;;24.99
15544;BMP180;7873;52.230;12.856;2022-12-20T01:28:25;101017.56;;;24.96
15544;BMP180;7873;52.230;12.856;2022-12-20T01:30:52;101021.94;;;24.97
15544;BMP180;7873;52.230;12.856;2022-12-20T01:33:19;101026.84;;;24.94
15544;BMP180;7873;52.230;12.856;2022-12-20T01:35:54;101027.38;;;24.89
15544;BMP180;7873;52.230;12.856;2022-12-20T01:38:21;101038.53;;;24.86
15544;BMP180;7873;52.230;12.856;2022-12-20T01:40:47;101026.06;;;24.85
15544;BMP180;7873;52.230;12.856;2022-12-20T01:43:16;101024.41;;;24.84
15544;BMP180;7873;52.230;12.856;2022-12-20T01:45:44;101026.44;;;24.82
15544;BMP180;7873;52.230;12.856;2022-12-20T01:48:13;101022.91;;;24.82
15544;BMP180;7873;52.230;12.856;2022-12-20T01:50:42;101015.19;;;24.79
15544;BMP180;7873;52.230;12.856;2022-12-20T01:53:09;101019.91;;;24.77
15544;BMP180;7873;52.230;12.856;2022-12-20T01:55:36;101018.25;;;24.76
15544;BMP180;7873;52.230;12.856;2022-12-20T01:58:05;101016.78;;;24.73
15544;BMP180;7873;52.230;12.856;2022-12-20T02:00:32;101020.66;;;24.71
15544;BMP180;7873;52.230;12.856;2022-12-20T02:03:03;101014.63;;;24.69
15544;BMP180;7873;52.230;12.856;2022-12-20T02:05:33;101031.97;;;24.66
15544;BMP180;7873;52.230;12.856;2022-12-20T02:08:00;101021.38;;;24.65
15544;BMP180;7873;52.230;12.856;2022-12-20T02:10:34;101018.84;;;24.63
15544;BMP180;7873;52.230;12.856;2022-12-20T02:13:07;101018.03;;;24.63
15544;BMP180;7873;52.230;12.856;2022-12-20T02:15:44;101021.75;;;24.62
15544;BMP180;7873;52.230;12.856;2022-12-20T02:18:19;101019.22;;;24.60
15544;BMP180;7873;52.230;12.856;2022-12-20T02:21:01;101004.25;;;24.58
15544;BMP180;7873;52.230;12.856;2022-12-20T02:23:44;101009.63;;;24.58
15544;BMP180;7873;52.230;12.856;2022-12-20T02:26:28;101010.66;;;24.57
15544;BMP180;7873;52.230;12.856;2022-12-20T02:29:10;101005.47;;;24.55
15544;BMP180;7873;52.230;12.856;2022-12-20T02:31:45;100988.28;;;24.56
15544;BMP180;7873;52.230;12.856;2022-12-20T02:34:15;100985.13;;;24.53
15544;BMP180;7873;52.230;12.856;2022-12-20T02:36:42;100979.94;;;24.51
15544;BMP180;7873;52.230;12.856;2022-12-20T02:39:11;100976.88;;;24.54
15544;BMP180;7873;52.230;12.856;2022-12-20T02:41:41;100978.06;;;24.52
15544;BMP180;7873;52.230;12.856;2022-12-20T02:44:16;100972.66;;;24.52
15544;BMP180;7873;52.230;12.856;2022-12-20T02:47:04;100963.41;;;24.46
15544;BMP180;7873;52.230;12.856;2022-12-20T02:49:35;100968.16;;;24.44
15544;BMP180;7873;52.230;12.856;2022-12-20T02:52:07;100975.22;;;24.45
15544;BMP180;7873;52.230;12.856;2022-12-20T02:54:35;100972.88;;;24.42
15544;BMP180;7873;52.230;12.856;2022-12-20T02:57:07;100970.38;;;24.41
15544;BMP180;7873;52.230;12.856;2022-12-20T02:59:39;100951.72;;;24.39
15544;BMP180;7873;52.230;12.856;2022-12-20T03:02:08;100965.00;;;24.41
15544;BMP180;7873;52.230;12.856;2022-12-20T03:04:38;100962.84;;;24.36
15544;BMP180;7873;52.230;12.856;2022-12-20T03:07:06;100968.22;;;24.36
15544;BMP180;7873;52.230;12.856;2022-12-20T03:09:34;100969.25;;;24.35
15544;BMP180;7873;52.230;12.856;2022-12-20T03:12:02;100969.41;;;24.34
15544;BMP180;7873;52.230;12.856;2022-12-20T03:14:29;100965.91;;;24.33
15544;BMP180;7873;52.230;12.856;2022-12-20T03:16:55;100959.84;;;24.31
15544;BMP180;7873;52.230;12.856;2022-12-20T03:19:24;100961.03;;;24.29
15544;BMP180;7873;52.230;12.856;2022-12-20T03:21:51;100972.81;;;24.28
15544;BMP180;7873;52.230;12.856;2022-12-20T03:24:17;100981.25;;;24.25
15544;BMP180;7873;52.230;12.856;2022-12-20T03:26:45;100970.66;;;24.23
15544;BMP180;7873;52.230;12.856;2022-12-20T03:29:12;100972.69;;;24.21
15544;BMP180;7873;52.230;12.856;2022-12-20T03:31:39;100965.66;;;24.20
15544;BMP180;7873;52.230;12.856;2022-12-20T03:34:06;100972.91;;;24.20
15544;BMP180;7873;52.230;12.856;2022-12-20T03:36:34;100964.16;;;24.18
15544;BMP180;7873;52.230;12.856;2022-12-20T03:39:02;100963.31;;;24.17
15544;BMP180;7873;52.230;12.856;2022-12-20T03:41:28;100976.31;;;24.14
15544;BMP180;7873;52.230;12.856;2022-12-20T03:43:55;100975.28;;;24.15
15544;BMP180;7873;52.230;12.856;2022-12-20T03:46:22;100971.09;;;24.12
15544;BMP180;7873;52.230;12.856;2022-12-20T03:48:48;100971.25;;;24.11
15544;BMP180;7873;52.230;12.856;2022-12-20T03:51:15;100969.59;;;24.10
15544;BMP180;7873;52.230;12.856;2022-12-20T03:53:43;100970.59;;;24.09
15544;BMP180;7873;52.230;12.856;2022-12-20T03:56:10;100953.81;;;24.07
15544;BMP180;7873;52.230;12.856;2022-12-20T03:58:37;100962.06;;;24.05
15544;BMP180;7873;52.230;12.856;2022-12-20T04:01:16;100957.06;;;24.02
15544;BMP180;7873;52.230;12.856;2022-12-20T04:03:42;100961.56;;;24.02
15544;BMP180;7873;52.230;12.856;2022-12-20T04:06:09;100957.22;;;24.01
15544;BMP180;7873;52.230;12.856;2022-12-20T04:08:36;100952.00;;;23.99
15544;BMP180;7873;52.230;12.856;2022-12-20T04:11:04;100959.41;;;23.97
15544;BMP180;7873;52.230;12.856;2022-12-20T04:13:43;100962.28;;;23.96
15544;BMP180;7873;52.230;12.856;2022-12-20T04:16:11;100954.38;;;23.94
15544;BMP180;7873;52.230;12.856;2022-12-20T04:18:37;100954.59;;;23.93
15544;BMP180;7873;52.230;12.856;2022-12-20T04:21:04;100969.06;;;23.92
15544;BMP180;7873;52.230;12.856;2022-12-20T04:23:32;100955.59;;;23.92
15544;BMP180;7873;52.230;12.856;2022-12-20T04:25:59;100941.47;;;23.90
15544;BMP180;7873;52.230;12.856;2022-12-20T04:28:27;100947.03;;;23.88
15544;BMP180;7873;52.230;12.856;2022-12-20T04:30:54;100939.31;;;23.85
15544;BMP180;7873;52.230;12.856;2022-12-20T04:33:20;100949.22;;;23.85
15544;BMP180;7873;52.230;12.856;2022-12-20T04:35:47;100953.78;;;23.84
15544;BMP180;7873;52.230;12.856;2022-12-20T04:38:14;100943.19;;;23.83
15544;BMP180;7873;52.230;12.856;2022-12-20T04:40:41;100939.81;;;23.81
15544;BMP180;7873;52.230;12.856;2022-12-20T04:43:08;100939.00;;;23.80
15544;BMP180;7873;52.230;12.856;2022-12-20T04:45:36;100942.00;;;23.77
15544;BMP180;7873;52.230;12.856;2022-12-20T04:48:03;100936.63;;;23.77
15544;BMP180;7873;52.230;12.856;2022-12-20T04:50:29;100935.97;;;23.75
15544;BMP180;7873;52.230;12.856;2022-12-20T04:52:56;100945.06;;;23.74
15544;BMP180;7873;52.230;12.856;2022-12-20T04:55:40;100944.41;;;23.73
15544;BMP180;7873;52.230;12.856;2022-12-20T04:58:07;100946.44;;;23.71
15544;BMP180;7873;52.230;12.856;2022-12-20T05:00:35;100938.56;;;23.69
15544;BMP180;7873;52.230;12.856;2022-12-20T05:03:02;100939.56;;;23.68
15544;BMP180;7873;52.230;12.856;2022-12-20T05:05:29;100945.09;;;23.67
15544;BMP180;7873;52.230;12.856;2022-12-20T05:07:56;100941.56;;;23.66
15544;BMP180;7873;52.230;12.856;2022-12-20T05:10:22;100934.50;;;23.65
15544;BMP180;7873;52.230;12.856;2022-12-20T05:12:49;100938.22;;;23.64
15544;BMP180;7873;52.230;12.856;2022-12-20T05:15:16;100936.53;;;23.63
15544;BMP180;7873;52.230;12.856;2022-12-20T05:17:44;100935.88;;;23.61
15544;BMP180;7873;52.230;12.856;2022-12-20T05:20:12;100930.72;;;23.60
15544;BMP180;7873;52.230;12.856;2022-12-20T05:22:38;100925.31;;;23.60
15544;BMP180;7873;52.230;12.856;2022-12-20T05:25:23;100927.50;;;23.56
15544;BMP180;7873;52.230;12.856;2022-12-20T05:28:07;100924.16;;;23.54
15544;BMP180;7873;52.230;12.856;2022-12-20T05:30:34;100933.25;;;23.53
15544;BMP180;7873;52.230;12.856;2022-12-20T05:33:02;100920.81;;;23.52
15544;BMP180;7873;52.230;12.856;2022-12-20T05:35:29;100923.50;;;23.52
15544;BMP180;7873;52.230;12.856;2022-12-20T05:37:55;100924.69;;;23.50
15544;BMP180;7873;52.230;12.856;2022-12-20T05:40:22;100924.88;;;23.48
15544;BMP180;7873;52.230;12.856;2022-12-20T05:42:49;100912.47;;;23.47
15544;BMP180;7873;52.230;12.856;2022-12-20T05:45:15;100906.41;;;23.45
15544;BMP180;7873;52.230;12.856;2022-12-20T05:47:42;100900.19;;;23.45
15544;BMP180;7873;52.230;12.856;2022-12-20T05:50:10;100907.59;;;23.43
15544;BMP180;7873;52.230;12.856;2022-12-20T05:52:37;100920.19;;;23.42
15544;BMP180;7873;52.230;12.856;2022-12-20T05:55:04;100920.38;;;23.41
15544;BMP180;7873;52.230;12.856;2022-12-20T05:57:31;100915.00;;;23.41
15544;BMP180;7873;52.230;12.856;2022-12-20T05:59:57;100921.38;;;23.40
15544;BMP180;7873;52.230;12.856;2022-12-20T06:02:24;100917.19;;;23.37
15544;BMP180;7873;52.230;12.856;2022-12-20T06:04:51;100907.44;;;23.36
15544;BMP180;7873;52.230;12.856;2022-12-20T06:07:19;100905.78;;;23.35
15544;BMP180;7873;52.230;12.856;2022-12-20T06:09:45;100901.63;;;23.33
15544;BMP180;7873;52.230;12.856;2022-12-20T06:12:12;100906.13;;;23.32
15544;BMP180;7873;52.230;12.856;2022-12-20T06:14:39;100917.72;;;23.33
15544;BMP180;7873;52.230;12.856;2022-12-20T06:17:06;100905.63;;;23.29
15544;BMP180;7873;52.230;12.856;2022-12-20T06:19:33;100913.69;;;23.29
15544;BMP180;7873;52.230;12.856;2022-12-20T06:21:59;100907.66;;;23.27
15544;BMP180;7873;52.230;12.856;2022-12-20T06:24:27;100912.38;;;23.25
15544;BMP180;7873;52.230;12.856;2022-12-20T06:26:54;100908.88;;;23.24
15544;BMP180;7873;52.230;12.856;2022-12-20T06:29:21;100908.00;;;23.24
15544;BMP180;7873;52.230;12.856;2022-12-20T06:31:49;100912.72;;;23.22
15544;BMP180;7873;52.230;12.856;2022-12-20T06:34:15;100907.50;;;23.20
15544;BMP180;7873;52.230;12.856;2022-12-20T06:36:42;100919.97;;;23.21
15544;BMP180;7873;52.230;12.856;2022-12-20T06:39:09;100923.81;;;23.19
15544;BMP180;7873;52.230;12.856;2022-12-20T06:41:38;100934.91;;;23.16
15544;BMP180;7873;52.230;12.856;2022-12-20T06:44:05;100924.34;;;23.14
15544;BMP180;7873;52.230;12.856;2022-12-20T06:46:32;100925.34;;;23.13
15544;BMP180;7873;52.230;12.856;2022-12-20T06:48:59;100932.59;;;23.13
15544;BMP180;7873;52.230;12.856;2022-12-20T06:51:26;100930.91;;;23.12
15544;BMP180;7873;52.230;12.856;2022-12-20T06:53:53;100931.91;;;23.11
15544;BMP180;7873;52.230;12.856;2022-12-20T06:56:19;100931.03;;;23.10
15544;BMP180;7873;52.230;12.856;2022-12-20T06:58:47;100932.91;;;23.10
15544;BMP180;7873;52.230;12.856;2022-12-20T07:01:14;100938.44;;;23.08
15544;BMP180;7873;52.230;12.856;2022-12-20T07:03:41;100934.41;;;23.04
15544;BMP180;7873;52.230;12.856;2022-12-20T07:06:07;100935.06;;;23.06
15544;BMP180;7873;52.230;12.856;2022-12-20T07:08:34;100938.28;;;23.02
15544;BMP180;7873;52.230;12.856;2022-12-20T07:11:05;100947.66;;;23.06
15544;BMP180;7873;52.230;12.856;2022-12-20T07:13:32;100936.56;;;23.09
15544;BMP180;7873;52.230;12.856;2022-12-20T07:16:01;100944.00;;;23.15
15544;BMP180;7873;52.230;12.856;2022-12-20T07:18:29;100937.41;;;23.17
15544;BMP180;7873;52.230;12.856;2022-12-20T07:20:58;100939.94;;;23.19
15544;BMP180;7873;52.230;12.856;2022-12-20T07:23:25;100935.72;;;23.24
15544;BMP180;7873;52.230;12.856;2022-12-20T07:25:53;100943.28;;;23.21
15544;BMP180;7873;52.230;12.856;2022-12-20T07:28:21;100939.44;;;23.23
15544;BMP180;7873;52.230;12.856;2022-12-20T07:30:48;100943.59;;;23.26
15544;BMP180;7873;52.230;12.856;2022-12-20T07:33:16;100933.88;;;23.25
15544;BMP180;7873;52.230;12.856;2022-12-20T07:35:43;100941.06;;;23.32
15544;BMP180;7873;52.230;12.856;2022-12-20T07:38:10;100941.38;;;23.37
15544;BMP180;7873;52.230;12.856;2022-12-20T07:40:39;100941.22;;;23.39
15544;BMP180;7873;52.230;12.856;2022-12-20T07:43:05;100950.28;;;23.38
15544;BMP180;7873;52.230;12.856;2022-12-20T07:45:32;100953.81;;;23.38
15544;BMP180;7873;52.230;12.856;2022-12-20T07:47:59;100953.31;;;23.35
15544;BMP180;7873;52.230;12.856;2022-12-20T07:50:28;100952.31;;;23.36
15544;BMP180;7873;52.230;12.856;2022-12-20T07:52:55;100950.09;;;23.39
15544;BMP180;7873;52.230;12.856;2022-12-20T07:55:23;100953.94;;;23.45
15544;BMP180;7873;52.230;12.856;2022-12-20T07:57:52;100951.22;;;23.53
15544;BMP180;7873;52.230;12.856;2022-12-20T08:00:21;100952.69;;;23.63
15544;BMP180;7873;52.230;12.856;2022-12-20T08:02:53;100953.31;;;23.73
15544;BMP180;7873;52.230;12.856;2022-12-20T08:05:21;100952.22;;;23.90
15544;BMP180;7873;52.230;12.856;2022-12-20T08:07:50;100942.88;;;24.08
15544;BMP180;7873;52.230;12.856;2022-12-20T08:10:18;100937.72;;;24.21
15544;BMP180;7873;52.230;12.856;2022-12-20T08:12:45;100931.72;;;24.34
15544;BMP180;7873;52.230;12.856;2022-12-20T08:15:13;100937.34;;;24.47
15544;BMP180;7873;52.230;12.856;2022-12-20T08:17:40;100936.13;;;24.57
15544;BMP180;7873;52.230;12.856;2022-12-20T08:20:08;100932.16;;;24.68
15544;BMP180;7873;52.230;12.856;2022-12-20T08:22:35;100933.28;;;24.73
15544;BMP180;7873;52.230;12.856;2022-12-20T08:25:04;100936.91;;;24.80
15544;BMP180;7873;52.230;12.856;2022-12-20T08:27:30;100939.72;;;24.87
15544;BMP180;7873;52.230;12.856;2022-12-20T08:29:58;100943.97;;;24.96
15544;BMP180;7873;52.230;12.856;2022-12-20T08:32:25;100943.72;;;25.05
15544;BMP180;7873;52.230;12.856;2022-12-20T08:34:52;100941.75;;;25.14
15544;BMP180;7873;52.230;12.856;2022-12-20T08:37:19;100943.56;;;25.21
15544;BMP180;7873;52.230;12.856;2022-12-20T08:39:46;100935.19;;;25.31
15544;BMP180;7873;52.230;12.856;2022-12-20T08:42:14;100925.50;;;25.36
15544;BMP180;7873;52.230;12.856;2022-12-20T08:44:41;100917.44;;;25.22
15544;BMP180;7873;52.230;12.856;2022-12-20T08:47:08;100926.75;;;25.19
15544;BMP180;7873;52.230;12.856;2022-12-20T08:49:35;100914.09;;;25.20
15544;BMP180;7873;52.230;12.856;2022-12-20T08:52:02;100914.59;;;24.86
15544;BMP180;7873;52.230;12.856;2022-12-20T08:54:29;100919.97;;;24.72
15544;BMP180;7873;52.230;12.856;2022-12-20T08:56:55;100913.03;;;24.77
15544;BMP180;7873;52.230;12.856;2022-12-20T08:59:23;100907.00;;;24.90
15544;BMP180;7873;52.230;12.856;2022-12-20T09:01:51;100910.16;;;24.93
15544;BMP180;7873;52.230;12.856;2022-12-20T09:04:18;100905.59;;;25.08
15544;BMP180;7873;52.230;12.856;2022-12-20T09:06:45;100909.44;;;25.14
15544;BMP180;7873;52.230;12.856;2022-12-20T09:09:12;100918.84;;;25.18
15544;BMP180;7873;52.230;12.856;2022-12-20T09:11:39;100912.03;;;25.22
15544;BMP180;7873;52.230;12.856;2022-12-20T09:14:05;100910.84;;;25.24
15544;BMP180;7873;52.230;12.856;2022-12-20T09:16:34;100916.69;;;25.28
15544;BMP180;7873;52.230;12.856;2022-12-20T09:19:01;100914.94;;;25.35
15544;BMP180;7873;52.230;12.856;2022-12-20T09:21:28;100909.63;;;25.41
15544;BMP180;7873;52.230;12.856;2022-12-20T09:23:56;100909.00;;;25.60
15544;BMP180;7873;52.230;12.856;2022-12-20T09:26:24;100905.06;;;25.77
15544;BMP180;7873;52.230;12.856;2022-12-20T09:28:51;100904.78;;;25.86
15544;BMP180;7873;52.230;12.856;2022-12-20T09:31:19;100913.22;;;25.98
15544;BMP180;7873;52.230;12.856;2022-12-20T09:33:48;100919.97;;;26.08
15544;BMP180;7873;52.230;12.856;2022-12-20T09:36:17;100918.00;;;26.17
15544;BMP180;7873;52.230;12.856;2022-12-20T09:38:46;100915.69;;;26.14
15544;BMP180;7873;52.230;12.856;2022-12-20T09:41:22;100903.44;;;25.97
15544;BMP180;7873;52.230;12.856;2022-12-20T09:43:50;100903.91;;;26.00
15544;BMP180;7873;52.230;12.856;2022-12-20T09:46:17;100904.03;;;26.13
15544;BMP180;7873;52.230;12.856;2022-12-20T09:48:45;100901.84;;;26.23
15544;BMP180;7873;52.230;12.856;2022-12-20T09:51:21;100916.88;;;26.32
15544;BMP180;7873;52.230;12.856;2022-12-20T09:54:00;100913.41;;;26.38
15544;BMP180;7873;52.230;12.856;2022-12-20T09:56:34;100905.09;;;26.40
15544;BMP180;7873;52.230;12.856;2022-12-20T09:59:03;100907.56;;;26.35
15544;BMP180;7873;52.230;12.856;2022-12-20T10:01:32;100908.38;;;26.35
15544;BMP180;7873;52.230;12.856;2022-12-20T10:04:04;100900.50;;;26.34
15544;BMP180;7873;52.230;12.856;2022-12-20T10:06:41;100906.91;;;26.33
15544;BMP180;7873;52.230;12.856;2022-12-20T10:09:15;100903.19;;;26.34
15544;BMP180;7873;52.230;12.856;2022-12-20T10:12:00;100895.84;;;26.28
15544;BMP180;7873;52.230;12.856;2022-12-20T10:14:46;100901.25;;;26.28
15544;BMP180;7873;52.230;12.856;2022-12-20T10:17:22;100903.53;;;26.24
15544;BMP180;7873;52.230;12.856;2022-12-20T10:20:21;100890.28;;;26.29
15544;BMP180;7873;52.230;12.856;2022-12-20T10:22:58;100882.41;;;26.34
15544;BMP180;7873;52.230;12.856;2022-12-20T10:25:29;100875.75;;;26.30
15544;BMP180;7873;52.230;12.856;2022-12-20T10:27:57;100864.53;;;26.33
15544;BMP180;7873;52.230;12.856;2022-12-20T10:30:27;100877.97;;;26.27
15544;BMP180;7873;52.230;12.856;2022-12-20T10:32:56;100868.44;;;26.03
15544;BMP180;7873;52.230;12.856;2022-12-20T10:35:25;100863.44;;;25.65
15544;BMP180;7873;52.230;12.856;2022-12-20T10:38:00;100860.88;;;25.43
15544;BMP180;7873;52.230;12.856;2022-12-20T10:40:30;100859.97;;;25.36
15544;BMP180;7873;52.230;12.856;2022-12-20T10:42:58;100861.94;;;25.27
15544;BMP180;7873;52.230;12.856;2022-12-20T10:45:31;100846.81;;;25.26
15544;BMP180;7873;52.230;12.856;2022-12-20T10:48:00;100836.19;;;25.25
15544;BMP180;7873;52.230;12.856;2022-12-20T10:50:28;100834.78;;;25.29
15544;BMP180;7873;52.230;12.856;2022-12-20T10:53:20;100823.34;;;25.41
15544;BMP180;7873;52.230;12.856;2022-12-20T10:55:47;100822.59;;;25.68
15544;BMP180;7873;52.230;12.856;2022-12-20T10:58:15;100820.97;;;25.88
15544;BMP180;7873;52.230;12.856;2022-12-20T11:00:43;100808.03;;;26.04
15544;BMP180;7873;52.230;12.856;2022-12-20T11:03:15;100812.06;;;26.15
15544;BMP180;7873;52.230;12.856;2022-12-20T11:05:53;100810.00;;;26.17
15544;BMP180;7873;52.230;12.856;2022-12-20T11:08:22;100796.34;;;26.25
15544;BMP180;7873;52.230;12.856;2022-12-20T11:11:09;100800.97;;;26.31
15544;BMP180;7873;52.230;12.856;2022-12-20T11:13:37;100802.00;;;26.30
15544;BMP180;7873;52.230;12.856;2022-12-20T11:16:05;100799.13;;;26.31
15544;BMP180;7873;52.230;12.856;2022-12-20T11:18:41;100798.72;;;26.34
15544;BMP180;7873;52.230;12.856;2022-12-20T11:21:16;100803.25;;;26.27
15544;BMP180;7873;52.230;12.856;2022-12-20T11:23:51;100797.38;;;26.24
15544;BMP180;7873;52.230;12.856;2022-12-20T11:26:32;100780.44;;;26.09
15544;BMP180;7873;52.230;12.856;2022-12-20T11:29:16;100784.72;;;25.97
15544;BMP180;7873;52.230;12.856;2022-12-20T11:31:50;100788.28;;;25.83
15544;BMP180;7873;52.230;12.856;2022-12-20T11:34:32;100776.78;;;25.74
15544;BMP180;7873;52.230;12.856;2022-12-20T11:37:18;100778.84;;;25.72
15544;BMP180;7873;52.230;12.856;2022-12-20T11:42:49;100774.16;;;25.60
15544;BMP180;7873;52.230;12.856;2022-12-20T11:45:22;100768.78;;;25.60
15544;BMP180;7873;52.230;12.856;2022-12-20T11:48:04;100761.00;;;25.71
15544;BMP180;7873;52.230;12.856;2022-12-20T11:50:50;100765.03;;;25.82
15544;BMP180;7873;52.230;12.856;2022-12-20T11:53:26;100759.97;;;25.93
15544;BMP180;7873;52.230;12.856;2022-12-20T11:55:58;100764.22;;;26.02
15544;BMP180;7873;52.230;12.856;2022-12-20T11:58:28;100762.00;;;26.12
15544;BMP180;7873;52.230;12.856;2022-12-20T12:00:59;100762.06;;;26.19
15544;BMP180;7873;52.230;12.856;2022-12-20T12:03:32;100749.66;;;26.24
15544;BMP180;7873;52.230;12.856;2022-12-20T12:06:02;100741.34;;;26.26
15544;BMP180;7873;52.230;12.856;2022-12-20T12:08:38;100740.75;;;26.30
15544;BMP180;7873;52.230;12.856;2022-12-20T12:11:11;100720.81;;;26.31
15544;BMP180;7873;52.230;12.856;2022-12-20T12:13:41;100724.16;;;26.33
15544;BMP180;7873;52.230;12.856;2022-12-20T12:16:12;100738.09;;;26.37
15544;BMP180;7873;52.230;12.856;2022-12-20T12:18:42;100732.88;;;26.35
15544;BMP180;7873;52.230;12.856;2022-12-20T12:21:15;100734.34;;;26.38
15544;BMP180;7873;52.230;12.856;2022-12-20T12:23:50;100725.22;;;26.39
15544;BMP180;7873;52.230;12.856;2022-12-20T12:26:23;100728.97;;;26.38
15544;BMP180;7873;52.230;12.856;2022-12-20T12:28:53;100721.88;;;26.37
15544;BMP180;7873;52.230;12.856;2022-12-20T12:31:24;100712.94;;;26.36
15544;BMP180;7873;52.230;12.856;2022-12-20T12:34:01;100716.91;;;26.34
15544;BMP180;7873;52.230;12.856;2022-12-20T12:36:44;100717.25;;;26.31
15544;BMP180;7873;52.230;12.856;2022-12-20T12:39:38;100716.63;;;26.29
15544;BMP180;7873;52.230;12.856;2022-12-20T12:42:21;100716.00;;;26.27
15544;BMP180;7873;52.230;12.856;2022-12-20T12:44:57;100703.94;;;26.23
15544;BMP180;7873;52.230;12.856;2022-12-20T12:47:32;100700.59;;;26.21
15544;BMP180;7873;52.230;12.856;2022-12-20T12:50:01;100702.66;;;26.19
15544;BMP180;7873;52.230;12.856;2022-12-20T12:52:42;100699.75;;;26.14
15544;BMP180;7873;52.230;12.856;2022-12-20T12:55:33;100693.72;;;26.12
15544;BMP180;7873;52.230;12.856;2022-12-20T13:01:05;100695.31;;;26.06
15544;BMP180;7873;52.230;12.856;2022-12-20T13:03:43;100699.88;;;26.06
15544;BMP180;7873;52.230;12.856;2022-12-20T13:09:40;100690.72;;;26.00
15544;BMP180;7873;52.230;12.856;2022-12-20T13:18:26;100704.34;;;25.92
15544;BMP180;7873;52.230;12.856;2022-12-20T13:21:15;100701.81;;;25.84
15544;BMP180;7873;52.230;12.856;2022-12-20T13:23:42;100707.19;;;25.84
15544;BMP180;7873;52.230;12.856;2022-12-20T13:26:48;100696.94;;;25.80
15544;BMP180;7873;52.230;12.856;2022-12-20T13:29:23;100689.25;;;25.77
15544;BMP180;7873;52.230;12.856;2022-12-20T13:31:50;100693.00;;;25.76
15544;BMP180;7873;52.230;12.856;2022-12-20T13:34:35;100685.06;;;25.74
15544;BMP180;7873;52.230;12.856;2022-12-20T13:37:02;100681.94;;;25.71
15544;BMP180;7873;52.230;12.856;2022-12-20T13:39:31;100684.84;;;25.69
15544;BMP180;7873;52.230;12.856;2022-12-20T13:42:18;100696.88;;;25.67
15544;BMP180;7873;52.230;12.856;2022-12-20T13:44:49;100693.72;;;25.63
15544;BMP180;7873;52.230;12.856;2022-12-20T13:47:31;100683.50;;;25.59
15544;BMP180;7873;52.230;12.856;2022-12-20T13:50:20;100685.56;;;25.57
15544;BMP180;7873;52.230;12.856;2022-12-20T13:52:48;100680.56;;;25.54
15544;BMP180;7873;52.230;12.856;2022-12-20T13:55:19;100683.00;;;25.49
15544;BMP180;7873;52.230;12.856;2022-12-20T13:57:49;100680.72;;;25.46
15544;BMP180;7873;52.230;12.856;2022-12-20T14:00:21;100679.03;;;25.45
15544;BMP180;7873;52.230;12.856;2022-12-20T14:02:50;100681.91;;;25.44
15544;BMP180;7873;52.230;12.856;2022-12-20T14:05:22;100681.28;;;25.42
15544;BMP180;7873;52.230;12.856;2022-12-20T14:07:59;100687.69;;;25.41
15544;BMP180;7873;52.230;12.856;2022-12-20T14:10:28;100680.00;;;25.38
15544;BMP180;7873;52.230;12.856;2022-12-20T14:12:56;100682.44;;;25.33
15544;BMP180;7873;52.230;12.856;2022-12-20T14:15:26;100668.69;;;25.28
15544;BMP180;7873;52.230;12.856;2022-12-20T14:17:54;100669.53;;;25.28
15544;BMP180;7873;52.230;12.856;2022-12-20T14:20:25;100668.69;;;25.28
15544;BMP180;7873;52.230;12.856;2022-12-20T14:22:56;100668.91;;;25.26
15544;BMP180;7873;52.230;12.856;2022-12-20T14:25:30;100659.34;;;25.24
15544;BMP180;7873;52.230;12.856;2022-12-20T14:27:57;100657.88;;;25.21
15544;BMP180;7873;52.230;12.856;2022-12-20T14:30:26;100637.78;;;25.24